Heidelberg, Mississippi
Current Conditions -  °F | °C
As of 12:58 PM on Tuesday 21 Oct 2014 (Local Time) from KMEI Reporting Station
Clear Clear  
Wind Chill: 76°   Ceiling: Unl
Heat Index: 76°   Visibility: 10mi
Dew Point: 53°   Wind: 5mph
Humidity: 45%   Direction: NA
Pressure: 30.05"   Gusts: NA
Location:  31.89°N, 88.98°W
Report Text: KMEI 211758Z VRB04KT 10SM CLR 24/12 A3005 RMK AO2 SLP174 60000 T02440117 10244 20072 58017
Loading
Personal Weather Stations






























Interactive Weather Map
Tropical Storm Tracking
New forecast layout! Learn more

10-Day Weather Forecast

Advertisements
Track Severe Weather on mobile